Map

Track Data

SID SEASON NUMBER BASIN SUBBASIN NAME ISO_TIME NATURE LAT LON WMO_WIND WMO_PRES WMO_AGENCY TRACK_TYPE DIST2LAND LANDFALL IFLAG USA_AGENCY USA_ATCF_ID USA_LAT USA_LON USA_RECORD USA_STATUS USA_WIND USA_PRES USA_SSHS USA_R34_NE USA_R34_SE USA_R34_SW USA_R34_NW USA_R50_NE USA_R50_SE USA_R50_SW USA_R50_NW USA_R64_NE USA_R64_SE USA_R64_SW USA_R64_NW USA_POCI USA_ROCI USA_RMW USA_EYE TOKYO_LAT TOKYO_LON TOKYO_GRADE TOKYO_WIND TOKYO_PRES TOKYO_R50_DIR TOKYO_R50_LONG TOKYO_R50_SHORT TOKYO_R30_DIR TOKYO_R30_LONG TOKYO_R30_SHORT TOKYO_LAND CMA_LAT CMA_LON CMA_CAT CMA_WIND CMA_PRES HKO_LAT HKO_LON HKO_CAT HKO_WIND HKO_PRES NEWDELHI_LAT NEWDELHI_LON NEWDELHI_GRADE NEWDELHI_WIND NEWDELHI_PRES NEWDELHI_CI NEWDELHI_DP NEWDELHI_POCI REUNION_LAT REUNION_LON REUNION_TYPE REUNION_WIND REUNION_PRES REUNION_TNUM REUNION_CI REUNION_RMW REUNION_R34_NE REUNION_R34_SE REUNION_R34_SW REUNION_R34_NW REUNION_R50_NE REUNION_R50_SE REUNION_R50_SW REUNION_R50_NW REUNION_R64_NE REUNION_R64_SE REUNION_R64_SW REUNION_R64_NW BOM_LAT BOM_LON BOM_TYPE BOM_WIND BOM_PRES BOM_TNUM BOM_CI BOM_RMW BOM_R34_NE BOM_R34_SE BOM_R34_SW BOM_R34_NW BOM_R50_NE BOM_R50_SE BOM_R50_SW BOM_R50_NW BOM_R64_NE BOM_R64_SE BOM_R64_SW BOM_R64_NW BOM_ROCI BOM_POCI BOM_EYE BOM_POS_METHOD BOM_PRES_METHOD NADI_LAT NADI_LON NADI_CAT NADI_WIND NADI_PRES WELLINGTON_LAT WELLINGTON_LON WELLINGTON_WIND WELLINGTON_PRES DS824_LAT DS824_LON DS824_STAGE DS824_WIND DS824_PRES TD9636_LAT TD9636_LON TD9636_STAGE TD9636_WIND TD9636_PRES TD9635_LAT TD9635_LON TD9635_WIND TD9635_PRES TD9635_ROCI NEUMANN_LAT NEUMANN_LON NEUMANN_CLASS NEUMANN_WIND NEUMANN_PRES MLC_LAT MLC_LON MLC_CLASS MLC_WIND MLC_PRES USA_GUST BOM_GUST BOM_GUST_PER REUNION_GUST REUNION_GUST_PER USA_SEAHGT USA_SEARAD_NE USA_SEARAD_SE USA_SEARAD_SW USA_SEARAD_NW STORM_SPEED STORM_DIR
1932304N11083 1932 69 NI BB NOT_NAMED 1932-10-30 00:00:00 TS 11.1000 83.3000 main 340 340 _________O____ -1 11.1000 83.3000 TC 30 3 345
1932304N11083 1932 69 NI BB NOT_NAMED 1932-10-30 03:00:00 TS 11.2667 83.2600 main 353 345 _________PO___ -1 11.3500 83.2400 TC 30 11.1000 83.3000 1 4 351
1932304N11083 1932 69 NI BB NOT_NAMED 1932-10-30 06:00:00 TS 11.5019 83.2275 main 345 338 _________OP___ -1 11.6000 83.2000 TC 30 11.3547 83.2688 1 5 355
1932304N11083 1932 69 NI BB NOT_NAMED 1932-10-30 09:00:00 TS 11.7461 83.2129 main 338 330 _________PP___ -1 11.8500 83.1925 TC 30 11.6075 83.2401 1 5 360
1932304N11083 1932 69 NI BB NOT_NAMED 1932-10-30 12:00:00 TS 11.9783 83.2081 main 330 327 _________OP___ -1 12.1000 83.2000 TC 30 11.8566 83.2163 1 5 357
1932304N11083 1932 69 NI BB NOT_NAMED 1932-10-30 15:00:00 TS 12.2250 83.2000 main 327 325 _________PO___ -1 12.3500 83.2000 TC 30 12.1000 83.2000 1 5 358
1932304N11083 1932 69 NI BB NOT_NAMED 1932-10-30 18:00:00 TS 12.4689 83.1964 main 325 321 _________OP___ -1 12.6000 83.2000 TC 30 12.3378 83.1928 1 5 359
1932304N11083 1932 69 NI BB NOT_NAMED 1932-10-30 21:00:00 TS 12.7063 83.1962 main 321 317 _________PP___ -1 12.8350 83.2000 TC 30 12.5775 83.1925 1 5 2
1932304N11083 1932 69 NI BB NOT_NAMED 1932-10-31 00:00:00 TS 12.9642 83.1980 main 315 314 _________OP___ -1 13.1000 83.2000 TC 30 12.8284 83.1959 1 6 1
1932304N11083 1932 69 NI BB NOT_NAMED 1932-10-31 03:00:00 TS 13.2713 83.2000 main 314 313 _________PO___ -1 13.4425 83.2000 TC 30 13.1000 83.2000 1 6 2
1932304N11083 1932 69 NI BB NOT_NAMED 1932-10-31 06:00:00 TS 13.6078 83.2020 main 313 312 _________OP___ -1 13.8000 83.2000 TC 30 13.4156 83.2040 1 7 0
1932304N11083 1932 69 NI BB NOT_NAMED 1932-10-31 09:00:00 TS 13.9325 83.2037 main 312 283 _________PP___ -1 14.1150 83.2000 TC 30 13.7500 83.2074 1 6 0
1932304N11083 1932 69 NI BB NOT_NAMED 1932-10-31 12:00:00 TS 14.2422 83.2036 main 283 253 _________OP___ -1 14.4000 83.2000 TC 30 14.0844 83.2071 1 6 0
1932304N11083 1932 69 NI BB NOT_NAMED 1932-10-31 15:00:00 TS 14.5287 83.2037 main 253 223 _________PO___ -1 14.6575 83.2075 TC 30 14.4000 83.2000 1 5 0
1932304N11083 1932 69 NI BB NOT_NAMED 1932-10-31 18:00:00 TS 14.7675 83.1951 main 223 203 _________OP___ -1 14.9000 83.2000 TC 30 14.6350 83.1902 1 5 356
1932304N11083 1932 69 NI BB NOT_NAMED 1932-10-31 21:00:00 TS 14.9838 83.1649 main 203 178 _________PP___ -1 15.1125 83.1575 TC 30 14.8550 83.1723 1 5 352
1932304N11083 1932 69 NI BB NOT_NAMED 1932-11-01 00:00:00 TS 15.2488 83.1216 main 178 140 _________OP___ -1 15.4000 83.1000 TC 30 15.0975 83.1432 1 7 353
1932304N11083 1932 69 NI BB NOT_NAMED 1932-11-01 03:00:00 TS 15.6350 83.0787 main 140 93 _________PO___ -1 15.8700 83.0574 TC 30 15.4000 83.1000 1 9 354
1932304N11083 1932 69 NI BB NOT_NAMED 1932-11-01 06:00:00 TS 16.1112 83.0257 main 93 67 _________OP___ -1 16.4000 83.0000 TC 30 15.8225 83.0515 1 10 353
1932304N11083 1932 69 NI BB NOT_NAMED 1932-11-01 09:00:00 TS 16.5775 82.9549 main 67 46 _________PP___ -1 16.8500 82.9224 TC 30 16.3050 82.9874 1 10 350
1932304N11083 1932 69 NI BB NOT_NAMED 1932-11-01 12:00:00 TS 17.0550 82.8523 main 35 0 _________OP___ -1 17.3000 82.8000 TC 30 16.8100 82.9045 1 10 346
1932304N11083 1932 69 NI BB NOT_NAMED 1932-11-01 15:00:00 TS 17.5613 82.7001 main 0 0 _________PO___ -1 17.8226 82.6002 TC 30 17.3000 82.8000 1 10 342
1932304N11083 1932 69 NI BB NOT_NAMED 1932-11-01 18:00:00 TS 18.0433 82.5239 main 0 0 _________OP___ -1 18.3000 82.4000 TC 30 17.7866 82.6478 1 10 341
1932304N11083 1932 69 NI BB NOT_NAMED 1932-11-01 21:00:00 TS 18.4588 82.3741 main 0 0 _________PP___ -1 18.6750 82.2699 TC 30 18.2426 82.4783 1 8 341
1932304N11083 1932 69 NI BB NOT_NAMED 1932-11-02 00:00:00 TS 18.7636 82.2598 main 0 0 _________OP___ -1 18.9000 82.2000 TC 30 18.6273 82.3196 1 5 340
1932304N11083 1932 69 NI BB NOT_NAMED 1932-11-02 03:00:00 TS 18.9225 82.1925 main 0 0 _________PO___ -1 18.9450 82.1849 TC 30 18.9000 82.2000 1 2 338
1932304N11083 1932 69 NI BB NOT_NAMED 1932-11-02 06:00:00 TS 18.9574 82.1782 main 0 0 _________OP___ -1 18.9000 82.2000 TC 30 19.0149 82.1564 1 0 341
1932304N11083 1932 69 NI BB NOT_NAMED 1932-11-02 09:00:00 TS 18.9599 82.1773 main 0 0 _________PP___ -1 18.9000 82.2000 TC 30 19.0199 82.1546 1 0 0
1932304N11083 1932 69 NI BB NOT_NAMED 1932-11-02 12:00:00 TS 18.9325 82.1877 main 0 0 _________OP___ -1 18.9000 82.2000 TC 30 18.9649 82.1754 1 1 0
1932304N11083 1932 69 NI BB NOT_NAMED 1932-11-02 15:00:00 TS 18.9000 82.2000 main 0 0 _________PO___ -1 18.9000 82.2000 TC 30 18.9000 82.2000 1 1 0
1932304N11083 1932 69 NI BB NOT_NAMED 1932-11-02 18:00:00 TS 18.8756 82.1778 main 0 0 _________OP___ -1 18.9000 82.2000 TC 30 18.8511 82.1557 1 1 221
1932304N11083 1932 69 NI BB NOT_NAMED 1932-11-02 21:00:00 TS 18.8399 82.1441 main 0 0 _________PP___ -1 18.8700 82.1701 TC 30 18.8097 82.1182 1 0 0
1932304N11083 1932 69 NI BB NOT_NAMED 1932-11-03 00:00:00 TS 18.8568 82.1608 main 0 0 _________OP___ -1 18.9000 82.2000 TC 30 18.8135 82.1216 1 2 44
1932304N11083 1932 69 NI BB NOT_NAMED 1932-11-03 03:00:00 TS 18.9700 82.2738 main 0 0 _________PO___ -1 19.0399 82.3477 TC 30 18.9000 82.2000 1 5 42
1932304N11083 1932 69 NI BB NOT_NAMED 1932-11-03 06:00:00 TS 19.2070 82.4997 main 0 0 _________OP___ -1 19.3000 82.6000 TC 30 19.1140 82.3995 1 8 41
1932304N11083 1932 69 NI BB NOT_NAMED 1932-11-03 09:00:00 TS 19.5478 82.8082 main 0 0 _________PP___ -1 19.6851 82.9422 TC 30 19.4104 82.6742 1 9 40
1932304N11083 1932 69 NI BB NOT_NAMED 1932-11-03 12:00:00 TS 19.9258 83.1435 main 0 0 _________OP___ -1 20.1000 83.3000 TC 30 19.7515 82.9870 1 9 40
1932304N11083 1932 69 NI BB NOT_NAMED 1932-11-03 15:00:00 TS 20.2574 83.4326 main 0 0 _________PO___ -1 20.4149 83.5653 TC 30 20.1000 83.3000 1 8 39
1932304N11083 1932 69 NI BB NOT_NAMED 1932-11-03 18:00:00 TS 20.5439 83.6828 main 0 0 _________OP___ -1 20.7000 83.8000 TC 30 20.3877 83.5657 1 8 39
1932304N11083 1932 69 NI BB NOT_NAMED 1932-11-03 21:00:00 TS 20.8350 83.9403 main 0 0 _________PP___ -1 20.9925 84.0576 TC 30 20.6774 83.8230 1 8 38
1932304N11083 1932 69 NI BB NOT_NAMED 1932-11-04 00:00:00 TS 21.1392 84.1844 main 0 0 _________OP___ -1 21.3000 84.3000 TC 30 20.9784 84.0688 1 8 34
1932304N11083 1932 69 NI BB NOT_NAMED 1932-11-04 03:00:00 TS 21.4675 84.4038 main 0 0 _________PO___ -1 21.6349 84.5076 TC 30 21.3000 84.3000 1 8 30
1932304N11083 1932 69 NI BB NOT_NAMED 1932-11-04 06:00:00 TS 21.8226 84.6094 main 0 0 _________OP___ -1 22.0000 84.7000 TC 30 21.6452 84.5188 1 8 28
1932304N11083 1932 69 NI BB NOT_NAMED 1932-11-04 09:00:00 TS 22.1987 84.8152 main 0 0 _________PP___ -1 22.3850 84.9075 TC 30 22.0124 84.7229 1 9 25
1932304N11083 1932 69 NI BB NOT_NAMED 1932-11-04 12:00:00 TS 22.5992 85.0078 main 0 0 _________OP___ -1 22.8000 85.1000 TC 30 22.3983 84.9156 1 9 22
1932304N11083 1932 69 NI BB NOT_NAMED 1932-11-04 15:00:00 TS 23.0250 85.1751 main 0 0 _________PO___ -1 23.2499 85.2502 TC 30 22.8000 85.1000 1 9 19
1932304N11083 1932 69 NI BB NOT_NAMED 1932-11-04 18:00:00 TS 23.4756 85.3411 main 0 0 _________OP___ -1 23.7000 85.4000 TC 30 23.2511 85.2821 1 10 20
1932304N11083 1932 69 NI BB NOT_NAMED 1932-11-04 21:00:00 TS 23.9237 85.5286 main 0 0 _________PP___ -1 24.1375 85.5999 TC 30 23.7098 85.4573 1 9 22
1932304N11083 1932 69 NI BB NOT_NAMED 1932-11-05 00:00:00 TS 24.3193 85.7145 main 0 0 _________OP___ -1 24.5000 85.8000 TC 30 24.1387 85.6289 1 8 25
1932304N11083 1932 69 NI BB NOT_NAMED 1932-11-05 03:00:00 TS 24.6187 85.8751 main 0 0 _________PO___ -1 24.7374 85.9502 TC 30 24.5000 85.8000 1 6 29
1932304N11083 1932 69 NI BB NOT_NAMED 1932-11-05 06:00:00 TS 24.8274 86.0297 main 0 0 _________OP___ -1 24.9000 86.1000 TC 30 24.7547 85.9594 1 5 38
1932304N11083 1932 69 NI BB NOT_NAMED 1932-11-05 09:00:00 TS 24.9985 86.2030 main 0 0 _________PP___ -1 25.0575 86.2851 TC 30 24.9396 86.1209 1 5 47
1932304N11083 1932 69 NI BB NOT_NAMED 1932-11-05 12:00:00 TS 25.1399 86.3984 main 0 0 _________OP___ -1 25.2000 86.5000 TC 30 25.0797 86.2968 1 5 53
1932304N11083 1932 69 NI BB NOT_NAMED 1932-11-05 15:00:00 TS 25.2787 86.6175 main 0 0 _________PO___ -1 25.3575 86.7350 TC 30 25.2000 86.5000 1 5 58
1932304N11083 1932 69 NI BB NOT_NAMED 1932-11-05 18:00:00 TS 25.3977 86.8511 main 0 0 _________OP___ -1 25.5000 87.0000 TC 30 25.3210 86.7394 1 5 63
1932304N11083 1932 69 NI BB NOT_NAMED 1932-11-05 21:00:00 TS 25.5115 87.1225 main 0 0 _________PP___ -1 25.6101 87.2924 TC 30 25.4457 87.0091 1 5 66
1932304N11083 1932 69 NI BB NOT_NAMED 1932-11-06 00:00:00 TS 25.6150 87.3995 main 0 0 _________OP___ -1 25.7000 87.6000 TC 30 25.5725 87.2993 1 5 66
1932304N11083 1932 69 NI BB NOT_NAMED 1932-11-06 03:00:00 NR 25.7000 87.6000 main 0 __________O___ -1 TC 25.7000 87.6000 1 4 65

About IBTrACS Database

This database is a web-friendly format of International Best Track Archive for Climate Stewardship (IBTrACS), a global best track data archive curated by NOAA dating back to 1842.

Updated: 2021-10-21